createdAt,value
2019-05-06T20:18:52.616Z,4.00
2019-05-06T20:21:19.583Z,3.40
2019-05-06T20:23:46.358Z,4.03
2019-05-06T20:26:13.396Z,3.77
2019-05-06T20:28:42.758Z,3.67
2019-05-06T20:31:28.919Z,3.77
2019-05-06T20:33:55.767Z,4.13
2019-05-06T20:36:22.792Z,3.60
2019-05-06T20:38:49.856Z,4.00
2019-05-06T20:41:16.645Z,3.47
2019-05-06T20:43:43.735Z,4.17
2019-05-06T20:46:12.449Z,3.53
2019-05-06T20:48:39.352Z,3.73
2019-05-06T20:51:06.406Z,4.13
2019-05-06T20:53:33.182Z,4.13
2019-05-06T20:55:59.990Z,4.00
2019-05-06T20:58:27.738Z,3.67
2019-05-06T21:00:55.079Z,4.07
2019-05-06T21:03:22.343Z,4.20
2019-05-06T21:05:49.299Z,3.87
2019-05-06T21:08:16.099Z,4.23
2019-05-06T21:10:42.930Z,4.07
2019-05-06T21:13:09.778Z,4.03
2019-05-06T21:15:36.662Z,4.00
2019-05-06T21:18:04.473Z,3.87
2019-05-06T21:20:33.013Z,4.20
2019-05-06T21:23:02.175Z,4.27
2019-05-06T21:25:29.126Z,3.80
2019-05-06T21:27:55.914Z,3.97
2019-05-06T21:30:22.802Z,3.97
2019-05-06T21:32:51.925Z,3.70
2019-05-06T21:35:18.385Z,3.53
2019-05-06T21:37:45.133Z,3.83
2019-05-06T21:40:12.985Z,3.70
2019-05-06T21:42:40.139Z,3.87
2019-05-06T21:45:06.996Z,4.13
2019-05-06T21:47:33.801Z,3.97
2019-05-06T21:50:00.562Z,4.37
2019-05-06T21:52:37.177Z,4.00
2019-05-06T21:54:56.654Z,4.23
2019-05-06T21:57:23.441Z,4.00
2019-05-06T21:59:52.381Z,4.37
2019-05-06T22:02:19.949Z,4.43
2019-05-06T22:04:46.751Z,4.20
2019-05-06T22:07:13.917Z,4.53
2019-05-06T22:09:42.919Z,4.13
2019-05-06T22:12:10.752Z,4.00
2019-05-06T22:14:37.535Z,4.03
2019-05-06T22:17:06.230Z,4.03
2019-05-06T22:19:33.234Z,4.30
2019-05-06T22:22:04.558Z,4.70
2019-05-06T22:25:02.673Z,4.30
2019-05-06T22:27:29.451Z,3.97
2019-05-06T22:29:56.260Z,4.13
2019-05-06T22:32:23.311Z,4.40
2019-05-06T22:34:50.428Z,4.50
2019-05-06T22:37:17.249Z,4.47
2019-05-06T22:39:44.009Z,4.67
2019-05-06T22:42:10.857Z,4.63
2019-05-06T22:44:37.647Z,4.60
2019-05-06T22:47:04.727Z,4.57
2019-05-06T22:49:32.106Z,4.43
2019-05-06T22:51:59.108Z,4.37
2019-05-06T22:54:27.136Z,5.03
2019-05-06T22:56:54.583Z,4.70
2019-05-06T22:59:42.736Z,4.70
2019-05-06T23:02:23.460Z,5.00
2019-05-06T23:04:53.146Z,4.90
